sensor_id;sensor_type;location;lat;lon;timestamp;P1;durP1;ratioP1;P2;durP2;ratioP2
5989;SDS011;14149;53.562;10.032;2022-12-10T00:02:25;40.17;;;16.00;;
5989;SDS011;14149;53.562;10.032;2022-12-10T00:04:51;30.67;;;15.40;;
5989;SDS011;14149;53.562;10.032;2022-12-10T00:07:17;37.83;;;15.30;;
5989;SDS011;14149;53.562;10.032;2022-12-10T00:09:43;31.50;;;13.47;;
5989;SDS011;14149;53.562;10.032;2022-12-10T00:12:09;32.57;;;13.90;;
5989;SDS011;14149;53.562;10.032;2022-12-10T00:14:35;32.43;;;12.47;;
5989;SDS011;14149;53.562;10.032;2022-12-10T00:17:01;29.07;;;12.43;;
5989;SDS011;14149;53.562;10.032;2022-12-10T00:19:27;32.10;;;13.40;;
5989;SDS011;14149;53.562;10.032;2022-12-10T00:21:53;39.30;;;14.23;;
5989;SDS011;14149;53.562;10.032;2022-12-10T00:24:19;30.77;;;9.73;;
5989;SDS011;14149;53.562;10.032;2022-12-10T00:26:45;34.07;;;13.23;;
5989;SDS011;14149;53.562;10.032;2022-12-10T00:29:12;31.37;;;13.10;;
5989;SDS011;14149;53.562;10.032;2022-12-10T00:31:38;27.60;;;11.10;;
5989;SDS011;14149;53.562;10.032;2022-12-10T00:34:05;30.53;;;12.87;;
5989;SDS011;14149;53.562;10.032;2022-12-10T00:36:35;31.67;;;12.50;;
5989;SDS011;14149;53.562;10.032;2022-12-10T00:39:01;34.63;;;11.67;;
5989;SDS011;14149;53.562;10.032;2022-12-10T00:41:28;31.13;;;11.73;;
5989;SDS011;14149;53.562;10.032;2022-12-10T00:43:54;26.37;;;12.40;;
5989;SDS011;14149;53.562;10.032;2022-12-10T00:46:20;31.63;;;12.37;;
5989;SDS011;14149;53.562;10.032;2022-12-10T00:48:46;30.50;;;11.50;;
5989;SDS011;14149;53.562;10.032;2022-12-10T00:51:14;30.27;;;11.77;;
5989;SDS011;14149;53.562;10.032;2022-12-10T00:53:41;27.10;;;11.70;;
5989;SDS011;14149;53.562;10.032;2022-12-10T00:56:08;32.60;;;12.67;;
5989;SDS011;14149;53.562;10.032;2022-12-10T00:58:35;33.50;;;13.07;;
5989;SDS011;14149;53.562;10.032;2022-12-10T01:03:46;25.50;;;11.40;;
5989;SDS011;14149;53.562;10.032;2022-12-10T01:06:14;27.60;;;10.97;;
5989;SDS011;14149;53.562;10.032;2022-12-10T01:08:41;37.90;;;11.73;;
5989;SDS011;14149;53.562;10.032;2022-12-10T01:11:08;31.73;;;10.70;;
5989;SDS011;14149;53.562;10.032;2022-12-10T01:13:34;27.73;;;10.57;;
5989;SDS011;14149;53.562;10.032;2022-12-10T01:16:01;27.33;;;10.57;;
5989;SDS011;14149;53.562;10.032;2022-12-10T01:18:28;33.83;;;12.07;;
5989;SDS011;14149;53.562;10.032;2022-12-10T01:20:54;24.30;;;10.43;;
5989;SDS011;14149;53.562;10.032;2022-12-10T01:23:20;29.63;;;11.97;;
5989;SDS011;14149;53.562;10.032;2022-12-10T01:25:46;34.93;;;11.37;;
5989;SDS011;14149;53.562;10.032;2022-12-10T01:28:12;26.90;;;11.57;;
5989;SDS011;14149;53.562;10.032;2022-12-10T01:30:38;22.93;;;11.47;;
5989;SDS011;14149;53.562;10.032;2022-12-10T01:33:04;24.73;;;11.60;;
5989;SDS011;14149;53.562;10.032;2022-12-10T01:35:30;22.30;;;11.50;;
5989;SDS011;14149;53.562;10.032;2022-12-10T01:37:56;26.90;;;13.13;;
5989;SDS011;14149;53.562;10.032;2022-12-10T01:40:22;22.83;;;10.00;;
5989;SDS011;14149;53.562;10.032;2022-12-10T01:42:50;28.53;;;9.93;;
5989;SDS011;14149;53.562;10.032;2022-12-10T01:45:16;29.83;;;11.67;;
5989;SDS011;14149;53.562;10.032;2022-12-10T01:47:42;24.80;;;10.70;;
5989;SDS011;14149;53.562;10.032;2022-12-10T01:50:09;28.03;;;11.83;;
5989;SDS011;14149;53.562;10.032;2022-12-10T01:52:35;28.07;;;11.57;;
5989;SDS011;14149;53.562;10.032;2022-12-10T01:55:01;25.50;;;10.73;;
5989;SDS011;14149;53.562;10.032;2022-12-10T01:57:28;28.43;;;9.70;;
5989;SDS011;14149;53.562;10.032;2022-12-10T01:59:58;25.53;;;9.23;;
5989;SDS011;14149;53.562;10.032;2022-12-10T02:07:30;20.83;;;9.63;;
5989;SDS011;14149;53.562;10.032;2022-12-10T02:10:02;28.43;;;9.90;;
5989;SDS011;14149;53.562;10.032;2022-12-10T02:12:46;22.63;;;9.10;;
5989;SDS011;14149;53.562;10.032;2022-12-10T02:15:14;27.87;;;10.57;;
5989;SDS011;14149;53.562;10.032;2022-12-10T02:17:42;23.13;;;9.63;;
5989;SDS011;14149;53.562;10.032;2022-12-10T02:20:19;17.20;;;8.63;;
5989;SDS011;14149;53.562;10.032;2022-12-10T02:22:48;19.93;;;8.27;;
5989;SDS011;14149;53.562;10.032;2022-12-10T02:25:16;17.07;;;8.33;;
5989;SDS011;14149;53.562;10.032;2022-12-10T02:30:09;22.57;;;8.40;;
5989;SDS011;14149;53.562;10.032;2022-12-10T02:32:36;24.33;;;9.10;;
5989;SDS011;14149;53.562;10.032;2022-12-10T02:35:05;23.10;;;9.90;;
5989;SDS011;14149;53.562;10.032;2022-12-10T02:37:33;25.10;;;11.03;;
5989;SDS011;14149;53.562;10.032;2022-12-10T02:40:05;23.77;;;8.70;;
5989;SDS011;14149;53.562;10.032;2022-12-10T02:42:32;23.30;;;9.70;;
5989;SDS011;14149;53.562;10.032;2022-12-10T02:44:59;20.47;;;8.33;;
5989;SDS011;14149;53.562;10.032;2022-12-10T02:47:26;23.67;;;10.60;;
5989;SDS011;14149;53.562;10.032;2022-12-10T02:49:53;22.20;;;10.60;;
5989;SDS011;14149;53.562;10.032;2022-12-10T02:52:19;21.73;;;9.30;;
5989;SDS011;14149;53.562;10.032;2022-12-10T02:54:47;20.30;;;8.33;;
5989;SDS011;14149;53.562;10.032;2022-12-10T03:02:28;21.10;;;9.83;;
5989;SDS011;14149;53.562;10.032;2022-12-10T03:07:34;19.00;;;8.90;;
5989;SDS011;14149;53.562;10.032;2022-12-10T03:10:03;21.93;;;9.97;;
5989;SDS011;14149;53.562;10.032;2022-12-10T03:12:39;27.20;;;11.57;;
5989;SDS011;14149;53.562;10.032;2022-12-10T03:15:08;28.90;;;9.70;;
5989;SDS011;14149;53.562;10.032;2022-12-10T03:17:35;24.40;;;9.97;;
5989;SDS011;14149;53.562;10.032;2022-12-10T03:20:02;24.47;;;9.67;;
5989;SDS011;14149;53.562;10.032;2022-12-10T03:22:29;23.27;;;10.43;;
5989;SDS011;14149;53.562;10.032;2022-12-10T03:24:58;27.00;;;9.87;;
5989;SDS011;14149;53.562;10.032;2022-12-10T03:27:25;25.47;;;11.67;;
5989;SDS011;14149;53.562;10.032;2022-12-10T03:29:53;23.87;;;9.30;;
5989;SDS011;14149;53.562;10.032;2022-12-10T03:32:20;23.43;;;9.37;;
5989;SDS011;14149;53.562;10.032;2022-12-10T03:34:48;22.50;;;9.77;;
5989;SDS011;14149;53.562;10.032;2022-12-10T03:37:16;19.97;;;9.57;;
5989;SDS011;14149;53.562;10.032;2022-12-10T03:39:42;30.27;;;10.20;;
5989;SDS011;14149;53.562;10.032;2022-12-10T03:42:09;19.40;;;10.47;;
5989;SDS011;14149;53.562;10.032;2022-12-10T03:44:36;19.97;;;8.87;;
5989;SDS011;14149;53.562;10.032;2022-12-10T03:47:03;24.00;;;7.80;;
5989;SDS011;14149;53.562;10.032;2022-12-10T03:49:29;26.43;;;11.20;;
5989;SDS011;14149;53.562;10.032;2022-12-10T03:51:56;22.27;;;10.43;;
5989;SDS011;14149;53.562;10.032;2022-12-10T03:54:22;23.70;;;10.30;;
5989;SDS011;14149;53.562;10.032;2022-12-10T03:56:48;25.40;;;10.67;;
5989;SDS011;14149;53.562;10.032;2022-12-10T03:59:14;23.93;;;9.33;;
5989;SDS011;14149;53.562;10.032;2022-12-10T04:01:40;18.70;;;8.70;;
5989;SDS011;14149;53.562;10.032;2022-12-10T04:04:07;19.03;;;8.87;;
5989;SDS011;14149;53.562;10.032;2022-12-10T04:06:33;20.47;;;8.90;;
5989;SDS011;14149;53.562;10.032;2022-12-10T04:08:59;18.83;;;9.27;;
5989;SDS011;14149;53.562;10.032;2022-12-10T04:11:25;21.43;;;9.30;;
5989;SDS011;14149;53.562;10.032;2022-12-10T04:13:52;18.30;;;7.70;;
5989;SDS011;14149;53.562;10.032;2022-12-10T04:16:37;19.63;;;7.57;;
5989;SDS011;14149;53.562;10.032;2022-12-10T04:19:07;17.70;;;9.30;;
5989;SDS011;14149;53.562;10.032;2022-12-10T04:21:34;25.70;;;9.07;;
5989;SDS011;14149;53.562;10.032;2022-12-10T04:24:20;20.37;;;9.77;;
5989;SDS011;14149;53.562;10.032;2022-12-10T04:27:06;17.87;;;8.47;;
5989;SDS011;14149;53.562;10.032;2022-12-10T04:29:33;16.90;;;8.60;;
5989;SDS011;14149;53.562;10.032;2022-12-10T04:32:00;20.60;;;8.87;;
5989;SDS011;14149;53.562;10.032;2022-12-10T04:34:26;17.80;;;8.80;;
5989;SDS011;14149;53.562;10.032;2022-12-10T04:36:52;18.60;;;8.10;;
5989;SDS011;14149;53.562;10.032;2022-12-10T04:39:19;16.53;;;6.50;;
5989;SDS011;14149;53.562;10.032;2022-12-10T04:41:46;13.07;;;8.00;;
5989;SDS011;14149;53.562;10.032;2022-12-10T04:44:12;17.40;;;7.67;;
5989;SDS011;14149;53.562;10.032;2022-12-10T04:46:38;14.83;;;7.87;;
5989;SDS011;14149;53.562;10.032;2022-12-10T04:49:05;17.77;;;7.60;;
5989;SDS011;14149;53.562;10.032;2022-12-10T04:51:31;18.03;;;7.60;;
5989;SDS011;14149;53.562;10.032;2022-12-10T04:53:57;13.80;;;7.23;;
5989;SDS011;14149;53.562;10.032;2022-12-10T04:56:24;19.03;;;7.70;;
5989;SDS011;14149;53.562;10.032;2022-12-10T04:58:50;12.53;;;7.20;;
5989;SDS011;14149;53.562;10.032;2022-12-10T05:01:16;14.83;;;6.90;;
5989;SDS011;14149;53.562;10.032;2022-12-10T05:03:43;15.57;;;8.37;;
5989;SDS011;14149;53.562;10.032;2022-12-10T05:06:11;13.93;;;8.33;;
5989;SDS011;14149;53.562;10.032;2022-12-10T05:08:38;14.83;;;7.27;;
5989;SDS011;14149;53.562;10.032;2022-12-10T05:11:06;15.47;;;7.40;;
5989;SDS011;14149;53.562;10.032;2022-12-10T05:13:32;14.80;;;7.80;;
5989;SDS011;14149;53.562;10.032;2022-12-10T05:16:01;12.50;;;6.63;;
5989;SDS011;14149;53.562;10.032;2022-12-10T05:18:27;12.80;;;6.87;;
5989;SDS011;14149;53.562;10.032;2022-12-10T05:20:53;14.43;;;8.00;;
5989;SDS011;14149;53.562;10.032;2022-12-10T05:23:19;15.33;;;6.70;;
5989;SDS011;14149;53.562;10.032;2022-12-10T05:26:05;13.37;;;7.00;;
5989;SDS011;14149;53.562;10.032;2022-12-10T05:28:32;17.33;;;6.97;;
5989;SDS011;14149;53.562;10.032;2022-12-10T05:30:59;17.57;;;9.03;;
5989;SDS011;14149;53.562;10.032;2022-12-10T05:33:25;17.03;;;7.57;;
5989;SDS011;14149;53.562;10.032;2022-12-10T05:36:01;17.63;;;7.50;;
5989;SDS011;14149;53.562;10.032;2022-12-10T05:38:28;21.50;;;7.70;;
5989;SDS011;14149;53.562;10.032;2022-12-10T05:40:55;17.80;;;8.00;;
5989;SDS011;14149;53.562;10.032;2022-12-10T05:43:21;16.40;;;7.77;;
5989;SDS011;14149;53.562;10.032;2022-12-10T05:45:47;15.40;;;7.73;;
5989;SDS011;14149;53.562;10.032;2022-12-10T05:48:14;19.63;;;8.20;;
5989;SDS011;14149;53.562;10.032;2022-12-10T05:50:41;13.90;;;7.83;;
5989;SDS011;14149;53.562;10.032;2022-12-10T05:53:07;14.70;;;6.77;;
5989;SDS011;14149;53.562;10.032;2022-12-10T05:55:33;15.27;;;7.77;;
5989;SDS011;14149;53.562;10.032;2022-12-10T05:58:02;19.80;;;7.70;;
5989;SDS011;14149;53.562;10.032;2022-12-10T06:00:29;17.70;;;7.73;;
5989;SDS011;14149;53.562;10.032;2022-12-10T06:02:55;12.73;;;7.73;;
5989;SDS011;14149;53.562;10.032;2022-12-10T06:05:21;16.53;;;8.73;;
5989;SDS011;14149;53.562;10.032;2022-12-10T06:07:47;13.37;;;6.67;;
5989;SDS011;14149;53.562;10.032;2022-12-10T06:10:13;18.77;;;8.43;;
5989;SDS011;14149;53.562;10.032;2022-12-10T06:12:39;15.77;;;7.93;;
5989;SDS011;14149;53.562;10.032;2022-12-10T06:15:05;13.83;;;7.20;;
5989;SDS011;14149;53.562;10.032;2022-12-10T06:17:32;14.60;;;8.03;;
5989;SDS011;14149;53.562;10.032;2022-12-10T06:19:58;19.73;;;8.63;;
5989;SDS011;14149;53.562;10.032;2022-12-10T06:22:24;15.93;;;8.10;;
5989;SDS011;14149;53.562;10.032;2022-12-10T06:24:50;17.97;;;8.73;;
5989;SDS011;14149;53.562;10.032;2022-12-10T06:27:16;15.83;;;8.40;;
5989;SDS011;14149;53.562;10.032;2022-12-10T06:29:43;16.23;;;7.57;;
5989;SDS011;14149;53.562;10.032;2022-12-10T06:32:09;16.63;;;8.40;;
5989;SDS011;14149;53.562;10.032;2022-12-10T06:34:35;13.57;;;7.30;;
5989;SDS011;14149;53.562;10.032;2022-12-10T06:37:02;15.47;;;7.73;;
5989;SDS011;14149;53.562;10.032;2022-12-10T06:39:28;13.17;;;7.10;;
5989;SDS011;14149;53.562;10.032;2022-12-10T06:41:54;14.97;;;7.10;;
5989;SDS011;14149;53.562;10.032;2022-12-10T06:44:20;15.00;;;7.50;;
5989;SDS011;14149;53.562;10.032;2022-12-10T06:46:46;16.17;;;8.23;;
5989;SDS011;14149;53.562;10.032;2022-12-10T06:49:12;12.50;;;7.10;;
5989;SDS011;14149;53.562;10.032;2022-12-10T06:51:38;13.03;;;6.73;;
5989;SDS011;14149;53.562;10.032;2022-12-10T06:54:04;15.33;;;7.00;;
5989;SDS011;14149;53.562;10.032;2022-12-10T06:56:31;16.70;;;7.80;;
5989;SDS011;14149;53.562;10.032;2022-12-10T06:58:57;14.70;;;7.77;;
5989;SDS011;14149;53.562;10.032;2022-12-10T07:01:23;14.53;;;7.90;;
5989;SDS011;14149;53.562;10.032;2022-12-10T07:03:53;15.27;;;8.00;;
5989;SDS011;14149;53.562;10.032;2022-12-10T07:06:20;12.80;;;7.27;;
5989;SDS011;14149;53.562;10.032;2022-12-10T07:08:47;13.27;;;8.00;;
5989;SDS011;14149;53.562;10.032;2022-12-10T07:11:14;12.53;;;7.80;;
5989;SDS011;14149;53.562;10.032;2022-12-10T07:13:40;15.20;;;7.87;;
5989;SDS011;14149;53.562;10.032;2022-12-10T07:16:17;16.17;;;8.13;;
5989;SDS011;14149;53.562;10.032;2022-12-10T07:18:43;13.70;;;7.20;;
5989;SDS011;14149;53.562;10.032;2022-12-10T07:21:13;15.00;;;9.00;;
5989;SDS011;14149;53.562;10.032;2022-12-10T07:23:39;14.87;;;7.33;;
5989;SDS011;14149;53.562;10.032;2022-12-10T07:26:06;15.13;;;7.90;;
5989;SDS011;14149;53.562;10.032;2022-12-10T07:28:32;16.07;;;8.13;;
5989;SDS011;14149;53.562;10.032;2022-12-10T07:31:02;14.90;;;7.63;;
5989;SDS011;14149;53.562;10.032;2022-12-10T07:33:28;15.53;;;7.73;;
5989;SDS011;14149;53.562;10.032;2022-12-10T07:35:54;15.50;;;8.03;;
5989;SDS011;14149;53.562;10.032;2022-12-10T07:38:21;15.97;;;8.07;;
5989;SDS011;14149;53.562;10.032;2022-12-10T07:40:47;16.40;;;9.33;;
5989;SDS011;14149;53.562;10.032;2022-12-10T07:43:13;13.50;;;7.47;;
5989;SDS011;14149;53.562;10.032;2022-12-10T07:45:40;14.00;;;7.77;;
5989;SDS011;14149;53.562;10.032;2022-12-10T07:48:06;18.67;;;7.93;;
5989;SDS011;14149;53.562;10.032;2022-12-10T07:50:32;16.03;;;7.67;;
5989;SDS011;14149;53.562;10.032;2022-12-10T07:52:58;15.80;;;8.80;;
5989;SDS011;14149;53.562;10.032;2022-12-10T07:55:24;16.83;;;9.10;;
5989;SDS011;14149;53.562;10.032;2022-12-10T07:57:50;16.30;;;8.03;;
5989;SDS011;14149;53.562;10.032;2022-12-10T08:00:16;16.60;;;7.50;;
5989;SDS011;14149;53.562;10.032;2022-12-10T08:02:42;17.33;;;9.33;;
5989;SDS011;14149;53.562;10.032;2022-12-10T08:05:08;12.63;;;6.70;;
5989;SDS011;14149;53.562;10.032;2022-12-10T08:07:35;16.90;;;8.77;;
5989;SDS011;14149;53.562;10.032;2022-12-10T08:10:01;16.33;;;7.80;;
5989;SDS011;14149;53.562;10.032;2022-12-10T08:12:27;16.07;;;7.43;;
5989;SDS011;14149;53.562;10.032;2022-12-10T08:14:53;14.13;;;7.27;;
5989;SDS011;14149;53.562;10.032;2022-12-10T08:17:19;17.57;;;7.83;;
5989;SDS011;14149;53.562;10.032;2022-12-10T08:19:45;13.80;;;7.67;;
5989;SDS011;14149;53.562;10.032;2022-12-10T08:22:11;22.47;;;7.60;;
5989;SDS011;14149;53.562;10.032;2022-12-10T08:24:37;13.60;;;7.40;;
5989;SDS011;14149;53.562;10.032;2022-12-10T08:27:03;15.30;;;7.77;;
5989;SDS011;14149;53.562;10.032;2022-12-10T08:29:29;15.83;;;8.20;;
5989;SDS011;14149;53.562;10.032;2022-12-10T08:31:55;14.33;;;6.90;;
5989;SDS011;14149;53.562;10.032;2022-12-10T08:34:22;18.13;;;9.33;;
5989;SDS011;14149;53.562;10.032;2022-12-10T08:36:48;14.73;;;7.10;;
5989;SDS011;14149;53.562;10.032;2022-12-10T08:39:14;16.00;;;7.40;;
5989;SDS011;14149;53.562;10.032;2022-12-10T08:41:41;15.50;;;7.27;;
5989;SDS011;14149;53.562;10.032;2022-12-10T08:44:08;15.50;;;7.23;;
5989;SDS011;14149;53.562;10.032;2022-12-10T08:46:34;13.97;;;7.00;;
5989;SDS011;14149;53.562;10.032;2022-12-10T08:49:00;20.90;;;9.53;;
5989;SDS011;14149;53.562;10.032;2022-12-10T08:51:26;13.60;;;7.13;;
5989;SDS011;14149;53.562;10.032;2022-12-10T08:53:53;15.57;;;8.73;;
5989;SDS011;14149;53.562;10.032;2022-12-10T08:56:19;20.03;;;8.57;;
5989;SDS011;14149;53.562;10.032;2022-12-10T08:58:45;16.93;;;8.00;;
5989;SDS011;14149;53.562;10.032;2022-12-10T09:01:12;15.00;;;8.00;;
5989;SDS011;14149;53.562;10.032;2022-12-10T09:03:39;15.80;;;8.17;;
5989;SDS011;14149;53.562;10.032;2022-12-10T09:06:06;14.30;;;7.60;;
5989;SDS011;14149;53.562;10.032;2022-12-10T09:08:33;16.13;;;8.40;;
5989;SDS011;14149;53.562;10.032;2022-12-10T09:11:06;13.60;;;6.70;;
5989;SDS011;14149;53.562;10.032;2022-12-10T09:13:32;17.17;;;8.30;;
5989;SDS011;14149;53.562;10.032;2022-12-10T09:15:59;17.07;;;8.47;;
5989;SDS011;14149;53.562;10.032;2022-12-10T09:18:25;15.73;;;8.20;;
5989;SDS011;14149;53.562;10.032;2022-12-10T09:20:51;14.30;;;7.73;;
5989;SDS011;14149;53.562;10.032;2022-12-10T09:23:17;13.77;;;6.80;;
5989;SDS011;14149;53.562;10.032;2022-12-10T09:25:43;12.80;;;6.07;;
5989;SDS011;14149;53.562;10.032;2022-12-10T09:28:09;12.53;;;6.83;;
5989;SDS011;14149;53.562;10.032;2022-12-10T09:30:35;13.57;;;6.97;;
5989;SDS011;14149;53.562;10.032;2022-12-10T09:33:01;17.17;;;7.90;;
5989;SDS011;14149;53.562;10.032;2022-12-10T09:35:28;14.97;;;7.47;;
5989;SDS011;14149;53.562;10.032;2022-12-10T09:37:54;13.10;;;7.27;;
5989;SDS011;14149;53.562;10.032;2022-12-10T09:40:23;15.13;;;7.60;;
5989;SDS011;14149;53.562;10.032;2022-12-10T09:45:52;17.07;;;7.53;;
5989;SDS011;14149;53.562;10.032;2022-12-10T09:48:28;18.40;;;8.90;;
5989;SDS011;14149;53.562;10.032;2022-12-10T09:51:06;14.37;;;7.83;;
5989;SDS011;14149;53.562;10.032;2022-12-10T09:53:35;13.20;;;5.97;;
5989;SDS011;14149;53.562;10.032;2022-12-10T09:56:01;17.63;;;8.23;;
5989;SDS011;14149;53.562;10.032;2022-12-10T09:58:28;13.63;;;7.00;;
5989;SDS011;14149;53.562;10.032;2022-12-10T10:00:58;11.70;;;6.50;;
5989;SDS011;14149;53.562;10.032;2022-12-10T10:03:25;13.37;;;6.53;;
5989;SDS011;14149;53.562;10.032;2022-12-10T10:05:52;15.00;;;7.60;;
5989;SDS011;14149;53.562;10.032;2022-12-10T10:10:55;14.80;;;7.07;;
5989;SDS011;14149;53.562;10.032;2022-12-10T10:13:34;9.47;;;5.97;;
5989;SDS011;14149;53.562;10.032;2022-12-10T10:21:25;13.63;;;6.93;;
5989;SDS011;14149;53.562;10.032;2022-12-10T10:23:52;12.03;;;6.97;;
5989;SDS011;14149;53.562;10.032;2022-12-10T10:26:18;14.00;;;7.27;;
5989;SDS011;14149;53.562;10.032;2022-12-10T10:28:44;15.53;;;7.07;;
5989;SDS011;14149;53.562;10.032;2022-12-10T10:31:20;16.53;;;7.60;;
5989;SDS011;14149;53.562;10.032;2022-12-10T10:33:48;11.90;;;6.37;;
5989;SDS011;14149;53.562;10.032;2022-12-10T10:36:15;16.40;;;8.10;;
5989;SDS011;14149;53.562;10.032;2022-12-10T10:38:46;11.80;;;7.50;;
5989;SDS011;14149;53.562;10.032;2022-12-10T10:41:13;12.70;;;6.70;;
5989;SDS011;14149;53.562;10.032;2022-12-10T10:43:41;13.53;;;6.77;;
5989;SDS011;14149;53.562;10.032;2022-12-10T10:48:35;12.00;;;6.37;;
5989;SDS011;14149;53.562;10.032;2022-12-10T10:51:14;12.50;;;6.87;;
5989;SDS011;14149;53.562;10.032;2022-12-10T10:56:12;14.20;;;7.80;;
5989;SDS011;14149;53.562;10.032;2022-12-10T11:01:27;15.33;;;7.93;;
5989;SDS011;14149;53.562;10.032;2022-12-10T11:04:08;13.80;;;6.97;;
5989;SDS011;14149;53.562;10.032;2022-12-10T11:06:34;17.63;;;7.70;;
5989;SDS011;14149;53.562;10.032;2022-12-10T11:09:01;14.23;;;8.40;;
5989;SDS011;14149;53.562;10.032;2022-12-10T11:14:12;16.40;;;9.00;;
5989;SDS011;14149;53.562;10.032;2022-12-10T11:16:40;18.83;;;8.00;;
5989;SDS011;14149;53.562;10.032;2022-12-10T11:19:16;14.93;;;8.07;;
5989;SDS011;14149;53.562;10.032;2022-12-10T11:21:44;16.20;;;6.97;;
5989;SDS011;14149;53.562;10.032;2022-12-10T11:24:10;14.00;;;8.00;;
5989;SDS011;14149;53.562;10.032;2022-12-10T11:31:45;18.50;;;8.20;;
5989;SDS011;14149;53.562;10.032;2022-12-10T11:34:19;13.73;;;6.67;;
5989;SDS011;14149;53.562;10.032;2022-12-10T11:44:47;14.53;;;7.27;;
5989;SDS011;14149;53.562;10.032;2022-12-10T11:49:52;12.63;;;7.33;;
5989;SDS011;14149;53.562;10.032;2022-12-10T11:55:19;18.30;;;8.30;;
5989;SDS011;14149;53.562;10.032;2022-12-10T11:58:24;15.90;;;8.23;;
5989;SDS011;14149;53.562;10.032;2022-12-10T12:00:47;18.90;;;9.47;;
5989;SDS011;14149;53.562;10.032;2022-12-10T12:06:07;15.93;;;9.23;;
5989;SDS011;14149;53.562;10.032;2022-12-10T12:13:54;18.90;;;9.10;;
5989;SDS011;14149;53.562;10.032;2022-12-10T12:16:42;18.50;;;9.60;;
5989;SDS011;14149;53.562;10.032;2022-12-10T12:19:12;15.57;;;8.97;;
5989;SDS011;14149;53.562;10.032;2022-12-10T12:21:40;14.80;;;7.97;;
5989;SDS011;14149;53.562;10.032;2022-12-10T12:24:09;14.97;;;7.90;;
5989;SDS011;14149;53.562;10.032;2022-12-10T12:26:38;15.87;;;8.90;;
5989;SDS011;14149;53.562;10.032;2022-12-10T12:29:11;13.27;;;8.20;;
5989;SDS011;14149;53.562;10.032;2022-12-10T12:31:40;19.37;;;9.77;;
5989;SDS011;14149;53.562;10.032;2022-12-10T12:36:39;19.80;;;9.07;;
5989;SDS011;14149;53.562;10.032;2022-12-10T12:39:14;16.03;;;8.83;;
5989;SDS011;14149;53.562;10.032;2022-12-10T12:41:50;17.03;;;8.97;;
5989;SDS011;14149;53.562;10.032;2022-12-10T12:47:29;13.40;;;7.70;;
5989;SDS011;14149;53.562;10.032;2022-12-10T12:49:50;19.37;;;8.40;;
5989;SDS011;14149;53.562;10.032;2022-12-10T12:54:52;15.77;;;8.37;;
5989;SDS011;14149;53.562;10.032;2022-12-10T12:57:41;15.53;;;8.27;;
5989;SDS011;14149;53.562;10.032;2022-12-10T13:00:10;15.37;;;8.13;;
5989;SDS011;14149;53.562;10.032;2022-12-10T13:05:13;15.47;;;7.33;;
5989;SDS011;14149;53.562;10.032;2022-12-10T13:07:39;14.13;;;7.70;;
5989;SDS011;14149;53.562;10.032;2022-12-10T13:12:32;18.50;;;9.23;;
5989;SDS011;14149;53.562;10.032;2022-12-10T13:18:00;19.83;;;8.40;;
5989;SDS011;14149;53.562;10.032;2022-12-10T13:22:59;14.93;;;8.40;;
5989;SDS011;14149;53.562;10.032;2022-12-10T13:26:16;19.47;;;9.03;;
5989;SDS011;14149;53.562;10.032;2022-12-10T13:28:50;15.70;;;8.17;;
5989;SDS011;14149;53.562;10.032;2022-12-10T13:33:46;11.73;;;6.43;;
5989;SDS011;14149;53.562;10.032;2022-12-10T13:36:13;13.80;;;8.17;;
5989;SDS011;14149;53.562;10.032;2022-12-10T13:38:54;15.67;;;8.20;;
5989;SDS011;14149;53.562;10.032;2022-12-10T13:41:21;15.30;;;8.40;;
5989;SDS011;14149;53.562;10.032;2022-12-10T13:44:25;16.20;;;8.43;;
5989;SDS011;14149;53.562;10.032;2022-12-10T13:46:53;20.07;;;8.77;;
5989;SDS011;14149;53.562;10.032;2022-12-10T13:49:20;17.83;;;8.60;;
5989;SDS011;14149;53.562;10.032;2022-12-10T13:59:50;17.63;;;8.70;;
5989;SDS011;14149;53.562;10.032;2022-12-10T14:02:36;16.40;;;8.67;;
5989;SDS011;14149;53.562;10.032;2022-12-10T14:07:38;14.10;;;7.50;;
5989;SDS011;14149;53.562;10.032;2022-12-10T14:10:07;16.70;;;8.57;;
5989;SDS011;14149;53.562;10.032;2022-12-10T14:12:37;16.87;;;9.03;;
5989;SDS011;14149;53.562;10.032;2022-12-10T14:15:06;19.03;;;9.77;;
5989;SDS011;14149;53.562;10.032;2022-12-10T14:17:37;15.63;;;8.33;;
5989;SDS011;14149;53.562;10.032;2022-12-10T14:20:04;17.03;;;8.37;;
5989;SDS011;14149;53.562;10.032;2022-12-10T14:22:33;16.43;;;8.70;;
5989;SDS011;14149;53.562;10.032;2022-12-10T14:25:00;16.67;;;9.30;;
5989;SDS011;14149;53.562;10.032;2022-12-10T14:27:27;16.03;;;8.67;;
5989;SDS011;14149;53.562;10.032;2022-12-10T14:29:58;17.23;;;8.47;;
5989;SDS011;14149;53.562;10.032;2022-12-10T14:32:29;16.37;;;8.30;;
5989;SDS011;14149;53.562;10.032;2022-12-10T14:34:57;15.20;;;8.03;;
5989;SDS011;14149;53.562;10.032;2022-12-10T14:37:25;22.87;;;9.70;;
5989;SDS011;14149;53.562;10.032;2022-12-10T14:39:52;16.80;;;8.20;;
5989;SDS011;14149;53.562;10.032;2022-12-10T14:42:18;18.27;;;9.00;;
5989;SDS011;14149;53.562;10.032;2022-12-10T14:44:45;15.63;;;8.50;;
5989;SDS011;14149;53.562;10.032;2022-12-10T14:47:17;15.77;;;8.93;;
5989;SDS011;14149;53.562;10.032;2022-12-10T14:49:44;15.00;;;8.17;;
5989;SDS011;14149;53.562;10.032;2022-12-10T14:52:13;13.80;;;8.10;;
5989;SDS011;14149;53.562;10.032;2022-12-10T14:54:39;16.67;;;9.80;;
5989;SDS011;14149;53.562;10.032;2022-12-10T14:57:07;14.63;;;7.70;;
5989;SDS011;14149;53.562;10.032;2022-12-10T14:59:48;23.30;;;10.80;;
5989;SDS011;14149;53.562;10.032;2022-12-10T15:02:20;19.60;;;9.37;;
5989;SDS011;14149;53.562;10.032;2022-12-10T15:04:48;15.97;;;8.83;;
5989;SDS011;14149;53.562;10.032;2022-12-10T15:07:17;13.20;;;6.93;;
5989;SDS011;14149;53.562;10.032;2022-12-10T15:09:43;14.93;;;8.37;;
5989;SDS011;14149;53.562;10.032;2022-12-10T15:12:19;18.10;;;9.27;;
5989;SDS011;14149;53.562;10.032;2022-12-10T15:14:45;15.37;;;7.50;;
5989;SDS011;14149;53.562;10.032;2022-12-10T15:19:58;13.87;;;8.03;;
5989;SDS011;14149;53.562;10.032;2022-12-10T15:22:24;18.40;;;9.50;;
5989;SDS011;14149;53.562;10.032;2022-12-10T15:24:52;17.83;;;9.30;;
5989;SDS011;14149;53.562;10.032;2022-12-10T15:27:22;13.90;;;7.53;;
5989;SDS011;14149;53.562;10.032;2022-12-10T15:29:50;16.43;;;9.43;;
5989;SDS011;14149;53.562;10.032;2022-12-10T15:32:21;17.17;;;8.40;;
5989;SDS011;14149;53.562;10.032;2022-12-10T15:34:52;17.10;;;9.13;;
5989;SDS011;14149;53.562;10.032;2022-12-10T15:37:20;17.50;;;8.30;;
5989;SDS011;14149;53.562;10.032;2022-12-10T15:39:48;18.07;;;8.50;;
5989;SDS011;14149;53.562;10.032;2022-12-10T15:42:28;14.23;;;7.13;;
5989;SDS011;14149;53.562;10.032;2022-12-10T15:44:56;16.63;;;9.07;;
5989;SDS011;14149;53.562;10.032;2022-12-10T15:47:24;18.23;;;9.07;;
5989;SDS011;14149;53.562;10.032;2022-12-10T15:49:52;18.17;;;9.20;;
5989;SDS011;14149;53.562;10.032;2022-12-10T15:54:46;16.60;;;9.80;;
5989;SDS011;14149;53.562;10.032;2022-12-10T15:57:13;17.10;;;8.90;;
5989;SDS011;14149;53.562;10.032;2022-12-10T15:59:40;23.17;;;9.47;;
5989;SDS011;14149;53.562;10.032;2022-12-10T16:04:51;18.23;;;9.43;;
5989;SDS011;14149;53.562;10.032;2022-12-10T16:07:17;16.73;;;10.37;;
5989;SDS011;14149;53.562;10.032;2022-12-10T16:09:44;21.60;;;9.60;;
5989;SDS011;14149;53.562;10.032;2022-12-10T16:12:11;15.80;;;8.83;;
5989;SDS011;14149;53.562;10.032;2022-12-10T16:14:37;21.77;;;10.83;;
5989;SDS011;14149;53.562;10.032;2022-12-10T16:17:03;17.87;;;8.70;;
5989;SDS011;14149;53.562;10.032;2022-12-10T16:19:29;17.97;;;9.03;;
5989;SDS011;14149;53.562;10.032;2022-12-10T16:21:56;20.87;;;10.63;;
5989;SDS011;14149;53.562;10.032;2022-12-10T16:24:22;25.87;;;9.23;;
5989;SDS011;14149;53.562;10.032;2022-12-10T16:26:48;18.67;;;9.70;;